createdAt,value
2017-07-25T00:00:13.259Z,0
2017-07-25T00:01:23.525Z,0
2017-07-25T00:02:33.780Z,0
2017-07-25T00:03:44.054Z,0
2017-07-25T00:04:54.324Z,0
2017-07-25T00:06:04.282Z,0
2017-07-25T00:07:14.238Z,0
2017-07-25T00:08:26.920Z,0
2017-07-25T00:09:36.870Z,0
2017-07-25T00:10:46.825Z,0
2017-07-25T00:11:56.779Z,0
2017-07-25T00:13:06.750Z,0
2017-07-25T00:14:19.172Z,0
2017-07-25T00:15:29.127Z,0
2017-07-25T00:16:39.397Z,0
2017-07-25T00:17:49.353Z,0
2017-07-25T00:18:59.316Z,0
2017-07-25T00:20:09.533Z,0
2017-07-25T00:21:19.489Z,0
2017-07-25T00:22:29.752Z,0
2017-07-25T00:23:39.710Z,0
2017-07-25T00:24:49.984Z,0
2017-07-25T00:26:00.552Z,0
2017-07-25T00:27:10.821Z,0
2017-07-25T00:28:20.773Z,0
2017-07-25T00:29:30.417Z,0
2017-07-25T00:30:40.698Z,0
2017-07-25T00:31:51.274Z,0
2017-07-25T00:33:01.547Z,0
2017-07-25T00:34:11.818Z,0
2017-07-25T00:35:21.786Z,0
2017-07-25T00:36:31.744Z,0
2017-07-25T00:37:41.854Z,0
2017-07-25T00:38:52.127Z,0
2017-07-25T00:40:02.404Z,0
2017-07-25T00:41:12.363Z,0
2017-07-25T00:42:22.322Z,0
2017-07-25T00:43:32.790Z,0
2017-07-25T00:44:43.061Z,0
2017-07-25T00:45:52.703Z,0
2017-07-25T00:47:02.969Z,0
2017-07-25T00:48:12.609Z,0
2017-07-25T00:49:22.718Z,0
2017-07-25T00:50:32.993Z,0
2017-07-25T00:51:43.263Z,0
2017-07-25T00:52:53.523Z,0
2017-07-25T00:54:03.792Z,0
2017-07-25T00:55:14.210Z,0
2017-07-25T00:56:24.174Z,0
2017-07-25T00:57:34.141Z,0
2017-07-25T00:58:44.410Z,0
2017-07-25T00:59:54.677Z,0
2017-07-25T01:01:04.741Z,0
2017-07-25T01:02:15.010Z,0
2017-07-25T01:03:24.967Z,0
2017-07-25T01:04:35.240Z,0
2017-07-25T01:05:45.510Z,0
2017-07-25T01:06:55.613Z,0
2017-07-25T01:08:04.938Z,0
2017-07-25T01:09:15.205Z,0
2017-07-25T01:10:25.477Z,0
2017-07-25T01:11:35.433Z,0
2017-07-25T01:12:45.951Z,0
2017-07-25T01:13:56.215Z,0
2017-07-25T01:15:06.488Z,0
2017-07-25T01:16:16.442Z,0
2017-07-25T01:17:26.394Z,0
2017-07-25T01:18:36.763Z,0
2017-07-25T01:19:47.031Z,0
2017-07-25T01:20:57.295Z,0
2017-07-25T01:22:06.936Z,0
2017-07-25T01:23:16.892Z,0
2017-07-25T01:24:27.103Z,0
2017-07-25T01:25:37.372Z,0
2017-07-25T01:26:47.644Z,0
2017-07-25T01:27:57.912Z,0
2017-07-25T01:29:07.872Z,0
2017-07-25T01:30:18.242Z,0
2017-07-25T01:31:28.504Z,0
2017-07-25T01:32:38.457Z,0
2017-07-25T01:33:48.411Z,4
2017-07-25T01:34:58.681Z,4
2017-07-25T01:36:08.796Z,4
2017-07-25T01:37:18.759Z,4
2017-07-25T01:38:29.026Z,0
2017-07-25T01:39:39.302Z,0
2017-07-25T01:40:49.570Z,0
2017-07-25T01:41:59.521Z,4
2017-07-25T01:43:09.792Z,4
2017-07-25T01:44:20.064Z,4
2017-07-25T01:45:30.356Z,4
2017-07-25T01:46:40.309Z,8
2017-07-25T01:47:50.593Z,4
2017-07-25T01:49:00.867Z,4
2017-07-25T01:50:11.136Z,8
2017-07-25T01:51:21.413Z,4
2017-07-25T01:52:31.364Z,8
2017-07-25T01:53:41.005Z,8
2017-07-25T01:54:51.270Z,8
2017-07-25T01:56:01.225Z,12
2017-07-25T01:57:10.555Z,12
2017-07-25T01:58:20.820Z,12
2017-07-25T01:59:31.092Z,16
2017-07-25T02:00:41.369Z,16
2017-07-25T02:01:51.637Z,16
2017-07-25T02:03:01.910Z,16
2017-07-25T02:04:12.181Z,20
2017-07-25T02:05:22.444Z,20
2017-07-25T02:06:32.711Z,24
2017-07-25T02:07:42.978Z,24
2017-07-25T02:08:53.245Z,28
2017-07-25T02:10:03.524Z,32
2017-07-25T02:11:15.415Z,32
2017-07-25T02:12:25.364Z,36
2017-07-25T02:13:35.632Z,44
2017-07-25T02:14:45.896Z,44
2017-07-25T02:15:55.850Z,48
2017-07-25T02:17:06.125Z,52
2017-07-25T02:18:16.399Z,56
2017-07-25T02:19:26.039Z,60
2017-07-25T02:20:36.307Z,64
2017-07-25T02:21:46.575Z,68
2017-07-25T02:22:56.841Z,72
2017-07-25T02:24:06.794Z,80
2017-07-25T02:25:16.437Z,84
2017-07-25T02:26:26.706Z,88
2017-07-25T02:27:36.976Z,92
2017-07-25T02:28:46.931Z,100
2017-07-25T02:29:56.881Z,104
2017-07-25T02:31:06.845Z,108
2017-07-25T02:32:17.122Z,120
2017-07-25T02:33:27.077Z,124
2017-07-25T02:34:37.353Z,132
2017-07-25T02:35:47.309Z,140
2017-07-25T02:36:57.578Z,152
2017-07-25T02:38:07.858Z,160
2017-07-25T02:39:18.129Z,168
2017-07-25T02:40:28.399Z,180
2017-07-25T02:41:38.357Z,196
2017-07-25T02:42:47.992Z,212
2017-07-25T02:43:58.255Z,224
2017-07-25T02:45:08.528Z,236
2017-07-25T02:46:18.797Z,252
2017-07-25T02:47:29.067Z,268
2017-07-25T02:48:39.023Z,284
2017-07-25T02:49:48.355Z,300
2017-07-25T02:50:58.315Z,316
2017-07-25T02:52:07.960Z,336
2017-07-25T02:53:17.914Z,360
2017-07-25T02:54:28.189Z,380
2017-07-25T02:55:38.456Z,400
2017-07-25T02:56:48.730Z,424
2017-07-25T02:57:59.035Z,448
2017-07-25T02:59:09.301Z,472
2017-07-25T03:00:19.256Z,500
2017-07-25T03:01:29.214Z,528
2017-07-25T03:02:39.502Z,556
2017-07-25T03:03:49.769Z,592
2017-07-25T03:04:59.722Z,616
2017-07-25T03:06:09.685Z,648
2017-07-25T03:07:19.954Z,672
2017-07-25T03:08:29.591Z,704
2017-07-25T03:09:39.550Z,740
2017-07-25T03:10:49.511Z,760
2017-07-25T03:11:59.779Z,780
2017-07-25T03:13:09.729Z,800
2017-07-25T03:14:20.002Z,832
2017-07-25T03:15:30.269Z,864
2017-07-25T03:16:40.539Z,896
2017-07-25T03:17:50.816Z,916
2017-07-25T03:19:01.104Z,944
2017-07-25T03:20:11.063Z,972
2017-07-25T03:21:21.337Z,1000
2017-07-25T03:22:31.602Z,1020
2017-07-25T03:23:41.556Z,1048
2017-07-25T03:24:51.510Z,1084
2017-07-25T03:26:01.782Z,1116
2017-07-25T03:27:11.735Z,1144
2017-07-25T03:28:21.689Z,1176
2017-07-25T03:29:31.963Z,1212
2017-07-25T03:30:41.935Z,1256
2017-07-25T03:31:52.208Z,1312
2017-07-25T03:33:02.475Z,1352
2017-07-25T03:34:12.426Z,1388
2017-07-25T03:35:22.700Z,1432
2017-07-25T03:36:32.653Z,1488
2017-07-25T03:37:42.619Z,1540
2017-07-25T03:38:52.893Z,1580
2017-07-25T03:40:02.848Z,1616
2017-07-25T03:41:12.805Z,1668
2017-07-25T03:42:22.755Z,1720
2017-07-25T03:43:32.713Z,1756
2017-07-25T03:44:42.982Z,1804
2017-07-25T03:45:53.267Z,1864
2017-07-25T03:47:03.540Z,1916
2017-07-25T03:48:13.492Z,1960
2017-07-25T03:49:23.770Z,1996
2017-07-25T03:50:33.730Z,2052
2017-07-25T03:51:44.002Z,2104
2017-07-25T03:52:54.274Z,2108
2017-07-25T03:54:04.562Z,2148
2017-07-25T03:55:14.518Z,2164
2017-07-25T03:56:24.475Z,2180
2017-07-25T03:57:34.750Z,2180
2017-07-25T03:58:44.706Z,2180
2017-07-25T03:59:54.974Z,2204
2017-07-25T04:01:05.242Z,2220
2017-07-25T04:02:14.885Z,2244
2017-07-25T04:03:25.153Z,2244
2017-07-25T04:04:35.451Z,2260
2017-07-25T04:05:45.097Z,2304
2017-07-25T04:06:55.366Z,2336
2017-07-25T04:08:05.328Z,2368
2017-07-25T04:09:14.972Z,2424
2017-07-25T04:10:24.933Z,2492
2017-07-25T04:11:35.210Z,2540
2017-07-25T04:12:45.497Z,2560
2017-07-25T04:13:55.457Z,2616
2017-07-25T04:15:05.730Z,2660
2017-07-25T04:16:15.685Z,2664
2017-07-25T04:17:25.952Z,2692
2017-07-25T04:18:36.239Z,2708
2017-07-25T04:19:46.511Z,2752
2017-07-25T04:20:55.839Z,2836
2017-07-25T04:22:06.110Z,2876
2017-07-25T04:23:16.384Z,2884
2017-07-25T04:24:26.655Z,2936
2017-07-25T04:25:36.926Z,3060
2017-07-25T04:26:47.200Z,3136
2017-07-25T04:27:57.161Z,3112
2017-07-25T04:29:07.426Z,3056
2017-07-25T04:30:17.695Z,3068
2017-07-25T04:31:28.006Z,3108
2017-07-25T04:32:38.280Z,3100
2017-07-25T04:33:48.237Z,3076
2017-07-25T04:34:58.211Z,3088
2017-07-25T04:36:08.488Z,3200
2017-07-25T04:37:18.760Z,3288
2017-07-25T04:38:28.721Z,3236
2017-07-25T04:39:38.677Z,3124
2017-07-25T04:40:48.955Z,3036
2017-07-25T04:41:59.220Z,2900
2017-07-25T04:43:09.496Z,2696
2017-07-25T04:44:19.770Z,2544
2017-07-25T04:45:30.061Z,2460
2017-07-25T04:46:40.329Z,2480
2017-07-25T04:47:50.289Z,2504
2017-07-25T04:49:00.560Z,2448
2017-07-25T04:50:10.515Z,2428
2017-07-25T04:51:20.799Z,2452
2017-07-25T04:52:30.772Z,2472
2017-07-25T04:53:41.048Z,2480
2017-07-25T04:54:51.321Z,2480
2017-07-25T04:56:01.590Z,2484
2017-07-25T04:57:11.862Z,2492
2017-07-25T04:58:21.817Z,2496
2017-07-25T04:59:32.088Z,2508
2017-07-25T05:00:42.046Z,2512
2017-07-25T05:01:52.317Z,2520
2017-07-25T05:03:02.588Z,2532
2017-07-25T05:04:12.558Z,2536
2017-07-25T05:05:21.886Z,2544
2017-07-25T05:06:32.158Z,2544
2017-07-25T05:07:42.430Z,2556
2017-07-25T05:08:52.701Z,2568
2017-07-25T05:10:02.974Z,2572
2017-07-25T05:11:12.964Z,2584
2017-07-25T05:12:23.231Z,2596
2017-07-25T05:13:33.503Z,2604
2017-07-25T05:14:43.796Z,2612
2017-07-25T05:15:54.072Z,2620
2017-07-25T05:17:04.361Z,2628
2017-07-25T05:18:14.637Z,2640
2017-07-25T05:19:24.906Z,2644
2017-07-25T05:20:34.862Z,2648
2017-07-25T05:21:45.140Z,2656
2017-07-25T05:22:55.409Z,2668
2017-07-25T05:24:05.364Z,2676
2017-07-25T05:25:15.637Z,2684
2017-07-25T05:26:25.905Z,2684
2017-07-25T05:27:35.545Z,2696
2017-07-25T05:28:45.504Z,2700
2017-07-25T05:29:55.776Z,2708
2017-07-25T05:31:06.052Z,2720
2017-07-25T05:32:15.698Z,2732
2017-07-25T05:33:25.351Z,2744
2017-07-25T05:34:34.998Z,2752
2017-07-25T05:35:45.283Z,2756
2017-07-25T05:36:55.570Z,2764
2017-07-25T05:38:05.846Z,2772
2017-07-25T05:39:16.122Z,2776
2017-07-25T05:40:26.391Z,2780
2017-07-25T05:41:36.660Z,2784
2017-07-25T05:42:46.938Z,2792
2017-07-25T05:43:57.207Z,2792
2017-07-25T05:45:07.493Z,2796
2017-07-25T05:46:17.768Z,2800
2017-07-25T05:47:27.726Z,2808
2017-07-25T05:48:37.993Z,2808
2017-07-25T05:49:47.948Z,2812
2017-07-25T05:50:58.221Z,2812
2017-07-25T05:52:07.867Z,2820
2017-07-25T05:53:17.826Z,2824
2017-07-25T05:54:28.103Z,2832
2017-07-25T05:55:38.372Z,2832
2017-07-25T05:56:48.646Z,2836
2017-07-25T05:57:58.932Z,2844
2017-07-25T05:59:09.209Z,2848
2017-07-25T06:00:19.484Z,2852
2017-07-25T06:01:29.439Z,2860
2017-07-25T06:02:39.393Z,2864
2017-07-25T06:03:49.669Z,2872
2017-07-25T06:04:59.624Z,2876
2017-07-25T06:06:09.897Z,2880
2017-07-25T06:07:19.853Z,2880
2017-07-25T06:08:30.127Z,2884
2017-07-25T06:09:40.401Z,2892
2017-07-25T06:10:50.042Z,2900
2017-07-25T06:12:00.317Z,2904
2017-07-25T06:13:10.586Z,2908
2017-07-25T06:14:20.542Z,2908
2017-07-25T06:15:30.822Z,2908
2017-07-25T06:16:41.095Z,2908
2017-07-25T06:17:51.370Z,2908
2017-07-25T06:19:01.637Z,2916
2017-07-25T06:20:11.909Z,2920
2017-07-25T06:21:21.873Z,2920
2017-07-25T06:22:31.517Z,2924
2017-07-25T06:23:41.794Z,2932
2017-07-25T06:24:52.067Z,2932
2017-07-25T06:26:01.718Z,2936
2017-07-25T06:27:11.991Z,2940
2017-07-25T06:28:22.262Z,2940
2017-07-25T06:29:32.525Z,2936
2017-07-25T06:30:42.483Z,2924
2017-07-25T06:31:52.436Z,2912
2017-07-25T06:33:02.395Z,2856
2017-07-25T06:34:12.042Z,2932
2017-07-25T06:35:21.995Z,2952
2017-07-25T06:36:31.951Z,2976
2017-07-25T06:37:42.224Z,2988
2017-07-25T06:38:52.498Z,2996
2017-07-25T06:40:02.460Z,3000
2017-07-25T06:41:12.736Z,3012
2017-07-25T06:42:22.382Z,3012
2017-07-25T06:43:32.348Z,3008
2017-07-25T06:44:42.303Z,3008
2017-07-25T06:45:52.583Z,2952
2017-07-25T06:47:02.858Z,3048
2017-07-25T06:48:13.149Z,3064
2017-07-25T06:49:23.112Z,3076
2017-07-25T06:50:33.384Z,3084
2017-07-25T06:51:43.036Z,3092
2017-07-25T06:52:53.309Z,3104
2017-07-25T06:54:02.954Z,3112
2017-07-25T06:55:13.233Z,3120
2017-07-25T06:56:23.191Z,3128
2017-07-25T06:57:33.146Z,3136
2017-07-25T06:58:43.422Z,3152
2017-07-25T06:59:53.380Z,3164
2017-07-25T07:01:03.652Z,3184
2017-07-25T07:02:13.921Z,3204
2017-07-25T07:03:24.196Z,3228
2017-07-25T07:04:34.159Z,3248
2017-07-25T07:05:44.124Z,3264
2017-07-25T07:06:53.763Z,3280
2017-07-25T07:08:03.734Z,3300
2017-07-25T07:09:14.010Z,3296
2017-07-25T07:10:24.279Z,3300
2017-07-25T07:11:34.247Z,3304
2017-07-25T07:12:44.519Z,3308
2017-07-25T07:13:54.789Z,3308
2017-07-25T07:15:04.439Z,3296
2017-07-25T07:16:14.707Z,3300
2017-07-25T07:17:24.988Z,3304
2017-07-25T07:18:35.259Z,3288
2017-07-25T07:19:45.214Z,3276
2017-07-25T07:20:55.174Z,3300
2017-07-25T07:22:05.148Z,3300
2017-07-25T07:23:15.421Z,3308
2017-07-25T07:24:25.387Z,3308
2017-07-25T07:25:35.684Z,3316
2017-07-25T07:26:45.959Z,3324
2017-07-25T07:27:55.930Z,3340
2017-07-25T07:29:06.224Z,3348
2017-07-25T07:30:16.499Z,3344
2017-07-25T07:31:26.469Z,3344
2017-07-25T07:32:36.742Z,3340
2017-07-25T07:33:47.014Z,3336
2017-07-25T07:34:56.657Z,3336
2017-07-25T07:36:06.942Z,3336
2017-07-25T07:37:17.211Z,3336
2017-07-25T07:38:27.172Z,3340
2017-07-25T07:39:37.442Z,3348
2017-07-25T07:40:47.400Z,3352
2017-07-25T07:41:57.355Z,3364
2017-07-25T07:43:07.325Z,3380
2017-07-25T07:44:17.599Z,3380
2017-07-25T07:45:27.871Z,3384
2017-07-25T07:46:37.828Z,3396
2017-07-25T07:47:47.784Z,3400
2017-07-25T07:48:57.740Z,3404
2017-07-25T07:50:07.695Z,3412
2017-07-25T07:51:17.970Z,3424
2017-07-25T07:52:28.235Z,3432
2017-07-25T07:53:38.194Z,3440
2017-07-25T07:54:48.465Z,3448
2017-07-25T07:55:58.747Z,3464
2017-07-25T07:57:08.710Z,3472
2017-07-25T07:58:18.975Z,3476
2017-07-25T07:59:28.934Z,3492
2017-07-25T08:00:39.220Z,3496
2017-07-25T08:01:49.493Z,3500
2017-07-25T08:02:59.473Z,3508
2017-07-25T08:04:09.743Z,3516
2017-07-25T08:05:20.023Z,3528
2017-07-25T08:06:29.978Z,3540
2017-07-25T08:07:40.249Z,3548
2017-07-25T08:08:50.521Z,3556
2017-07-25T08:10:00.476Z,3568
2017-07-25T08:11:10.433Z,3576
2017-07-25T08:12:20.715Z,3584
2017-07-25T08:13:30.671Z,3596
2017-07-25T08:14:40.943Z,3604
2017-07-25T08:15:51.221Z,3620
2017-07-25T08:17:01.181Z,3628
2017-07-25T08:18:11.454Z,3632
2017-07-25T08:19:21.730Z,3636
2017-07-25T08:20:31.686Z,3652
2017-07-25T08:21:41.959Z,3656
2017-07-25T08:22:51.599Z,3668
2017-07-25T08:24:01.557Z,3676
2017-07-25T08:25:11.264Z,3692
2017-07-25T08:26:21.544Z,3708
2017-07-25T08:27:31.818Z,3720
2017-07-25T08:28:42.094Z,3744
2017-07-25T08:29:52.383Z,3744
2017-07-25T08:31:02.340Z,3760
2017-07-25T08:32:12.616Z,3772
2017-07-25T08:33:22.573Z,3792
2017-07-25T08:34:32.843Z,3800
2017-07-25T08:35:43.128Z,3820
2017-07-25T08:36:53.087Z,3828
2017-07-25T08:38:03.049Z,3840
2017-07-25T08:39:13.011Z,3852
2017-07-25T08:40:22.971Z,3868
2017-07-25T08:41:32.931Z,3876
2017-07-25T08:42:43.206Z,3900
2017-07-25T08:43:53.162Z,3920
2017-07-25T08:45:02.805Z,3944
2017-07-25T08:46:13.106Z,3956
2017-07-25T08:47:23.063Z,3972
2017-07-25T08:48:33.336Z,4000
2017-07-25T08:49:43.617Z,4016
2017-07-25T08:50:53.890Z,4040
2017-07-25T08:52:04.172Z,4068
2017-07-25T08:53:14.456Z,4092
2017-07-25T08:54:24.411Z,4124
2017-07-25T08:55:34.388Z,4164
2017-07-25T08:56:44.664Z,4200
2017-07-25T08:57:54.622Z,4228
2017-07-25T08:59:04.587Z,3872
2017-07-25T09:00:14.562Z,4288
2017-07-25T09:01:24.832Z,4144
2017-07-25T09:02:35.128Z,3900
2017-07-25T09:03:45.417Z,3896
2017-07-25T09:04:55.372Z,4324
2017-07-25T09:06:05.332Z,4212
2017-07-25T09:07:15.604Z,3904
2017-07-25T09:08:25.883Z,3712
2017-07-25T09:09:36.180Z,4412
2017-07-25T09:10:46.455Z,4520
2017-07-25T09:11:56.418Z,4616
2017-07-25T09:13:06.695Z,4640
2017-07-25T09:14:16.654Z,4688
2017-07-25T09:15:26.613Z,4812
2017-07-25T09:16:36.884Z,4904
2017-07-25T09:17:47.155Z,5412
2017-07-25T09:18:57.118Z,5572
2017-07-25T09:20:07.073Z,5248
2017-07-25T09:21:17.350Z,5060
2017-07-25T09:22:27.626Z,4840
2017-07-25T09:23:37.908Z,4164
2017-07-25T09:24:48.207Z,4240
2017-07-25T09:25:58.180Z,4928
2017-07-25T09:27:08.151Z,5416
2017-07-25T09:28:18.428Z,5500
2017-07-25T09:29:28.703Z,5556
2017-07-25T09:30:38.676Z,5136
2017-07-25T09:31:48.948Z,5996
2017-07-25T09:32:58.915Z,5864
2017-07-25T09:34:09.202Z,5712
2017-07-25T09:35:19.480Z,5464
2017-07-25T09:36:29.442Z,5124
2017-07-25T09:37:39.401Z,5204
2017-07-25T09:38:49.681Z,5296
2017-07-25T09:39:59.639Z,5320
2017-07-25T09:41:09.611Z,5380
2017-07-25T09:42:19.883Z,5448
2017-07-25T09:43:29.838Z,5708
2017-07-25T09:44:40.112Z,5976
2017-07-25T09:45:50.073Z,5868
2017-07-25T09:47:00.351Z,5608
2017-07-25T09:48:10.629Z,5536
2017-07-25T09:49:20.589Z,5516
2017-07-25T09:50:30.241Z,5532
2017-07-25T09:51:40.519Z,5596
2017-07-25T09:52:50.512Z,5676
2017-07-25T09:54:00.792Z,5792
2017-07-25T09:55:11.065Z,5976
2017-07-25T09:56:21.350Z,6144
2017-07-25T09:57:30.995Z,6236
2017-07-25T09:58:40.957Z,6412
2017-07-25T09:59:51.241Z,6788
2017-07-25T10:01:01.212Z,6852
2017-07-25T10:02:10.861Z,6696
2017-07-25T10:03:20.822Z,6612
2017-07-25T10:04:31.097Z,6668
2017-07-25T10:05:41.372Z,6960
2017-07-25T10:06:51.642Z,7112
2017-07-25T10:08:01.914Z,7268
2017-07-25T10:09:11.877Z,7388
2017-07-25T10:10:22.157Z,7948
2017-07-25T10:11:31.797Z,9128
2017-07-25T10:12:42.073Z,9884
2017-07-25T10:13:52.346Z,9424
2017-07-25T10:15:02.622Z,10436
2017-07-25T10:16:12.278Z,10560
2017-07-25T10:17:22.559Z,10312
2017-07-25T10:18:32.831Z,10180
2017-07-25T10:19:42.804Z,10208
2017-07-25T10:20:53.086Z,10220
2017-07-25T10:22:03.053Z,11792
2017-07-25T10:23:13.334Z,12700
2017-07-25T10:24:23.312Z,12056
2017-07-25T10:25:33.580Z,12472
2017-07-25T10:26:43.542Z,13156
2017-07-25T10:27:53.818Z,13432
2017-07-25T10:29:04.108Z,13124
2017-07-25T10:30:14.383Z,13084
2017-07-25T10:31:24.347Z,14688
2017-07-25T10:32:34.620Z,16512
2017-07-25T10:33:44.900Z,14556
2017-07-25T10:34:55.178Z,13372
2017-07-25T10:36:05.454Z,12296
2017-07-25T10:37:15.419Z,11536
2017-07-25T10:38:25.383Z,12112
2017-07-25T10:39:35.669Z,12356
2017-07-25T10:40:45.945Z,13076
2017-07-25T10:41:56.232Z,12412
2017-07-25T10:43:06.518Z,12228
2017-07-25T10:44:16.799Z,14104
2017-07-25T10:45:26.766Z,15768
2017-07-25T10:46:36.728Z,16960
2017-07-25T10:47:47.008Z,18016
2017-07-25T10:48:57.288Z,19200
2017-07-25T10:50:06.932Z,19168
2017-07-25T10:51:16.897Z,19840
2017-07-25T10:52:26.858Z,20416
2017-07-25T10:53:37.132Z,19008
2017-07-25T10:54:47.411Z,19424
2017-07-25T10:55:57.690Z,20544
2017-07-25T10:57:07.336Z,19968
2017-07-25T10:58:16.987Z,19840
2017-07-25T10:59:26.954Z,19456
2017-07-25T11:00:37.233Z,18528
2017-07-25T11:01:47.509Z,18496
2017-07-25T11:02:57.798Z,19872
2017-07-25T11:04:08.073Z,20192
2017-07-25T11:05:18.034Z,20864
2017-07-25T11:06:28.311Z,21280
2017-07-25T11:07:38.586Z,21280
2017-07-25T11:08:48.869Z,19264
2017-07-25T11:09:58.835Z,18592
2017-07-25T11:11:08.821Z,19680
2017-07-25T11:12:18.783Z,20672
2017-07-25T11:13:28.749Z,20608
2017-07-25T11:14:38.396Z,19680
2017-07-25T11:15:48.360Z,19712
2017-07-25T11:16:58.331Z,19872
2017-07-25T11:18:07.986Z,17536
2017-07-25T11:19:18.264Z,15016
2017-07-25T11:20:28.228Z,13028
2017-07-25T11:21:38.190Z,11896
2017-07-25T11:22:48.152Z,11332
2017-07-25T11:23:58.454Z,11452
2017-07-25T11:25:08.421Z,12544
2017-07-25T11:26:18.720Z,13604
2017-07-25T11:27:28.999Z,13876
2017-07-25T11:28:39.273Z,14152
2017-07-25T11:29:49.236Z,13536
2017-07-25T11:30:58.891Z,13428
2017-07-25T11:32:09.168Z,12976
2017-07-25T11:33:19.136Z,12776
2017-07-25T11:34:28.806Z,12524
2017-07-25T11:35:39.093Z,12232
2017-07-25T11:36:49.372Z,13012
2017-07-25T11:37:59.334Z,12736
2017-07-25T11:39:09.613Z,27680
2017-07-25T11:40:19.581Z,70976
2017-07-25T11:41:29.555Z,85536
2017-07-25T11:42:39.843Z,86912
2017-07-25T11:43:50.120Z,84256
2017-07-25T11:45:00.404Z,84032
2017-07-25T11:46:10.061Z,86880
2017-07-25T11:47:20.347Z,83776
2017-07-25T11:48:30.624Z,84928
2017-07-25T11:49:40.906Z,82400
2017-07-25T11:50:50.893Z,82848
2017-07-25T11:52:00.865Z,86176
2017-07-25T11:53:11.152Z,79872
2017-07-25T11:54:21.127Z,77600
2017-07-25T11:55:31.092Z,77344
2017-07-25T11:56:41.374Z,81088
2017-07-25T11:57:51.659Z,78496
2017-07-25T11:59:01.634Z,76960
2017-07-25T12:00:11.296Z,72224
2017-07-25T12:01:23.392Z,65696
2017-07-25T12:02:33.684Z,71328
2017-07-25T12:03:43.969Z,81632
2017-07-25T12:04:54.256Z,78272
2017-07-25T12:06:04.546Z,85312
2017-07-25T12:07:14.837Z,89440
2017-07-25T12:08:24.805Z,80832
2017-07-25T12:09:34.149Z,75424
2017-07-25T12:10:44.443Z,73856
2017-07-25T12:11:54.414Z,76032
2017-07-25T12:13:04.705Z,74400
2017-07-25T12:14:14.985Z,79744
2017-07-25T12:15:25.271Z,67968
2017-07-25T12:16:34.958Z,22496
2017-07-25T12:17:44.925Z,56416
2017-07-25T12:18:54.589Z,80608
2017-07-25T12:20:04.572Z,83456
2017-07-25T12:21:14.577Z,84736
2017-07-25T12:22:24.553Z,82752
2017-07-25T12:23:34.217Z,78432
2017-07-25T12:24:44.194Z,74880
2017-07-25T12:25:54.166Z,71552
2017-07-25T12:27:04.148Z,69088
2017-07-25T12:28:13.808Z,76480
2017-07-25T12:29:23.806Z,77312
2017-07-25T12:30:34.118Z,76896
2017-07-25T12:31:44.411Z,77632
2017-07-25T12:32:54.696Z,77568
2017-07-25T12:34:04.671Z,78528
2017-07-25T12:35:14.955Z,76224
2017-07-25T12:36:25.242Z,78368
2017-07-25T12:37:35.524Z,86112
2017-07-25T12:38:45.812Z,82656
2017-07-25T12:39:56.101Z,84224
2017-07-25T12:41:06.390Z,84192
2017-07-25T12:42:16.697Z,80608
2017-07-25T12:43:26.672Z,81824
2017-07-25T12:44:36.964Z,81344
2017-07-25T12:45:47.253Z,82144
2017-07-25T12:46:57.228Z,84064
2017-07-25T12:48:07.534Z,78080
2017-07-25T12:49:17.828Z,82016
2017-07-25T12:50:27.803Z,83104
2017-07-25T12:51:38.096Z,79968
2017-07-25T12:52:48.385Z,81984
2017-07-25T12:53:58.675Z,81888
2017-07-25T12:55:08.989Z,80256
2017-07-25T12:56:19.324Z,85664
2017-07-25T12:57:29.301Z,83296
2017-07-25T12:58:38.957Z,77632
2017-07-25T12:59:48.935Z,76640
2017-07-25T13:00:59.226Z,81888
2017-07-25T13:02:09.205Z,66784
2017-07-25T13:03:19.497Z,81440
2017-07-25T13:04:29.474Z,82720
2017-07-25T13:05:39.772Z,78528
2017-07-25T13:06:49.436Z,52032
2017-07-25T13:07:59.409Z,49952
2017-07-25T13:09:09.388Z,76864
2017-07-25T13:10:19.678Z,80832
2017-07-25T13:11:29.657Z,82112
2017-07-25T13:12:39.947Z,82880
2017-07-25T13:13:50.241Z,82176
2017-07-25T13:15:00.533Z,71360
2017-07-25T13:16:10.824Z,51072
2017-07-25T13:17:20.801Z,47968
2017-07-25T13:18:30.797Z,70368
2017-07-25T13:19:41.090Z,80224
2017-07-25T13:20:51.382Z,81376
2017-07-25T13:22:01.357Z,81184
2017-07-25T13:23:11.703Z,84960
2017-07-25T13:24:21.378Z,87136
2017-07-25T13:25:31.037Z,85632
2017-07-25T13:26:41.347Z,82272
2017-07-25T13:27:51.645Z,83296
2017-07-25T13:29:01.941Z,87872
2017-07-25T13:30:11.916Z,87776
2017-07-25T13:31:22.214Z,85408
2017-07-25T13:32:32.190Z,89632
2017-07-25T13:33:41.854Z,90272
2017-07-25T13:34:51.832Z,83776
2017-07-25T13:36:02.126Z,82464
2017-07-25T13:37:12.418Z,85472
2017-07-25T13:38:22.710Z,84000
2017-07-25T13:39:32.689Z,86880
2017-07-25T13:40:44.663Z,88384
2017-07-25T13:41:54.647Z,89344
2017-07-25T13:43:04.623Z,89760
2017-07-25T13:44:14.916Z,88256
2017-07-25T13:45:24.895Z,88192
2017-07-25T13:46:34.873Z,86752
2017-07-25T13:47:45.167Z,81376
2017-07-25T13:48:55.141Z,85664
2017-07-25T13:50:05.435Z,89472
2017-07-25T13:51:15.727Z,87904
2017-07-25T13:52:26.017Z,86272
2017-07-25T13:53:36.304Z,83680
2017-07-25T13:54:46.598Z,82368
2017-07-25T13:55:56.263Z,81984
2017-07-25T13:57:06.550Z,85984
2017-07-25T13:58:16.526Z,86336
2017-07-25T13:59:26.502Z,85536
2017-07-25T14:00:36.795Z,85088
2017-07-25T14:01:47.094Z,84896
2017-07-25T14:02:57.074Z,83904
2017-07-25T14:04:06.736Z,83904
2017-07-25T14:05:17.039Z,83648
2017-07-25T14:06:27.328Z,85920
2017-07-25T14:07:36.992Z,84672
2017-07-25T14:08:47.287Z,81920
2017-07-25T14:09:57.269Z,81600
2017-07-25T14:11:07.563Z,82784
2017-07-25T14:12:17.858Z,82656
2017-07-25T14:13:28.159Z,80128
2017-07-25T14:14:38.458Z,80640
2017-07-25T14:15:48.749Z,84800
2017-07-25T14:16:59.039Z,83744
2017-07-25T14:18:09.021Z,82944
2017-07-25T14:19:19.323Z,85792
2017-07-25T14:20:29.623Z,82048
2017-07-25T14:21:39.288Z,79072
2017-07-25T14:22:49.586Z,80512
2017-07-25T14:23:59.566Z,55456
2017-07-25T14:25:09.553Z,51744
2017-07-25T14:26:19.842Z,67040
2017-07-25T14:27:29.511Z,48576
2017-07-25T14:28:39.492Z,41600
2017-07-25T14:29:49.794Z,56864
2017-07-25T14:30:59.141Z,67520
2017-07-25T14:32:09.120Z,69312
2017-07-25T14:33:19.093Z,69600
2017-07-25T14:34:28.758Z,72448
2017-07-25T14:35:39.049Z,66144
2017-07-25T14:36:48.716Z,54048
2017-07-25T14:37:58.701Z,52576
2017-07-25T14:39:08.683Z,53024
2017-07-25T14:40:18.657Z,55008
2017-07-25T14:41:28.318Z,52512
2017-07-25T14:42:38.623Z,49216
2017-07-25T14:43:48.593Z,46560
2017-07-25T14:44:57.938Z,56064
2017-07-25T14:46:08.232Z,59456
2017-07-25T14:47:18.525Z,59680
2017-07-25T14:48:28.818Z,61120
2017-07-25T14:49:38.799Z,63296
2017-07-25T14:50:48.771Z,64448
2017-07-25T14:51:59.067Z,73120
2017-07-25T14:53:09.359Z,77920
2017-07-25T14:54:19.013Z,76608
2017-07-25T14:55:28.992Z,73536
2017-07-25T14:56:39.282Z,74144
2017-07-25T14:57:49.258Z,75808
2017-07-25T14:58:59.236Z,81344
2017-07-25T15:00:09.579Z,83488
2017-07-25T15:01:19.551Z,80544
2017-07-25T15:02:29.843Z,85760
2017-07-25T15:03:40.137Z,88928
2017-07-25T15:04:49.800Z,92832
2017-07-25T15:05:59.463Z,91008
2017-07-25T15:07:09.764Z,86912
2017-07-25T15:08:20.305Z,87424
2017-07-25T15:09:30.611Z,88448
2017-07-25T15:10:40.287Z,88000
2017-07-25T15:11:50.587Z,81920
2017-07-25T15:13:00.875Z,87712
2017-07-25T15:14:10.854Z,84960
2017-07-25T15:15:20.826Z,81792
2017-07-25T15:16:30.807Z,83424
2017-07-25T15:17:41.102Z,55392
2017-07-25T15:18:51.080Z,79072
2017-07-25T15:20:01.371Z,80448
2017-07-25T15:21:11.665Z,79200
2017-07-25T15:22:21.641Z,77760
2017-07-25T15:23:31.616Z,78624
2017-07-25T15:24:41.589Z,77856
2017-07-25T15:25:51.570Z,77152
2017-07-25T15:27:01.561Z,80256
2017-07-25T15:28:11.539Z,79680
2017-07-25T15:29:21.514Z,77664
2017-07-25T15:30:31.493Z,77536
2017-07-25T15:31:41.783Z,77792
2017-07-25T15:32:51.440Z,78464
2017-07-25T15:34:01.427Z,74464
2017-07-25T15:35:11.408Z,74496
2017-07-25T15:36:21.705Z,74400
2017-07-25T15:37:31.994Z,70784